Time;durP1;ratioP1;P1;durP2;ratioP2;P2;SDS_P1;SDS_P2;PMS_P1;PMS_P2;Temp;Humidity;BMP_temperature;BMP_pressure;BME280_temperature;BME280_humidity;BME280_pressure;Samples;Min_cycle;Max_cycle;Signal;HPM_P1;HPM_P2
2022/03/07 00:00:30;;;;;;;6.93;3.72;;;2.80;99.90;;;;;;5017688;28;20092;-39
2022/03/07 00:02:56;;;;;;;6.38;3.42;;;2.70;99.90;;;;;;5027261;28;20030;-38
2022/03/07 00:05:22;;;;;;;7.65;4.03;;;2.70;99.90;;;;;;5027827;28;20022;-38
2022/03/07 00:07:47;;;;;;;9.45;3.85;;;2.60;99.90;;;;;;5017743;28;20466;-39
2022/03/07 00:10:13;;;;;;;12.10;4.07;;;2.50;99.90;;;;;;5020268;28;20045;-51
2022/03/07 00:12:39;;;;;;;6.68;3.38;;;2.50;99.90;;;;;;5022907;28;20026;-38
2022/03/07 00:15:04;;;;;;;9.27;4.18;;;2.50;99.90;;;;;;5015624;28;20018;-39
2022/03/07 00:17:30;;;;;;;8.30;3.97;;;2.50;99.90;;;;;;5022791;28;20026;-38
2022/03/07 00:19:56;;;;;;;7.15;3.42;;;2.50;99.90;;;;;;5018090;28;20029;-37
2022/03/07 00:22:21;;;;;;;9.73;4.28;;;2.40;99.90;;;;;;5019366;28;20026;-39
2022/03/07 00:24:47;;;;;;;7.05;3.47;;;2.30;99.90;;;;;;5013577;28;20386;-38
2022/03/07 00:27:12;;;;;;;6.75;4.03;;;2.30;99.90;;;;;;5013909;28;20080;-39
2022/03/07 00:29:38;;;;;;;4.68;3.80;;;2.30;99.90;;;;;;5012901;28;20101;-38
2022/03/07 00:32:04;;;;;;;6.30;3.25;;;2.20;99.90;;;;;;5013355;28;20018;-38
2022/03/07 00:34:30;;;;;;;5.55;3.42;;;2.20;99.90;;;;;;5014368;28;20026;-39
2022/03/07 00:36:55;;;;;;;6.38;3.63;;;2.20;99.90;;;;;;5013205;28;20079;-37
2022/03/07 00:39:21;;;;;;;7.20;3.80;;;2.20;99.90;;;;;;5013214;28;20029;-38
2022/03/07 00:41:46;;;;;;;8.38;3.80;;;2.20;99.90;;;;;;5023053;28;20021;-38
2022/03/07 00:44:13;;;;;;;7.00;3.60;;;2.30;99.90;;;;;;5013180;28;20041;-38
2022/03/07 00:46:38;;;;;;;6.13;3.42;;;2.30;99.90;;;;;;5023583;28;20026;-38
2022/03/07 00:49:04;;;;;;;5.00;3.30;;;2.30;99.90;;;;;;5032716;28;20037;-38
2022/03/07 00:51:30;;;;;;;5.63;3.67;;;2.30;99.90;;;;;;5032096;28;20017;-45
2022/03/07 00:53:55;;;;;;;9.70;3.28;;;2.30;99.90;;;;;;5027936;28;20372;-38
2022/03/07 00:56:21;;;;;;;5.07;3.78;;;2.30;99.90;;;;;;5023830;28;20017;-38
2022/03/07 00:58:46;;;;;;;6.82;3.85;;;2.20;99.90;;;;;;5027494;28;20079;-38
2022/03/07 01:01:12;;;;;;;4.60;3.22;;;2.20;99.90;;;;;;5022423;28;20486;-38
2022/03/07 01:03:38;;;;;;;5.90;3.28;;;2.20;99.90;;;;;;5027617;28;20390;-37
2022/03/07 01:06:03;;;;;;;9.38;3.60;;;2.20;99.90;;;;;;5028098;28;20061;-38
2022/03/07 01:08:29;;;;;;;5.30;4.25;;;2.10;99.90;;;;;;5024875;28;20026;-37
2022/03/07 01:10:54;;;;;;;5.32;3.75;;;2.10;99.90;;;;;;5020887;28;20112;-35
2022/03/07 01:13:22;;;;;;;6.22;3.78;;;2.10;99.90;;;;;;5016818;28;20017;-39
2022/03/07 01:15:48;;;;;;;6.93;3.77;;;2.10;99.90;;;;;;5024096;28;20037;-37
2022/03/07 01:18:14;;;;;;;6.10;3.42;;;2.00;99.90;;;;;;5012915;28;20299;-39
2022/03/07 01:20:41;;;;;;;6.95;3.85;;;2.00;99.90;;;;;;5023595;28;20053;-38
2022/03/07 01:23:07;;;;;;;6.18;3.63;;;2.00;99.90;;;;;;5021364;28;20029;-38
2022/03/07 01:25:33;;;;;;;7.03;2.97;;;1.90;99.90;;;;;;5032347;28;20025;-39
2022/03/07 01:27:58;;;;;;;5.30;2.90;;;1.90;99.90;;;;;;5029565;28;20048;-39
2022/03/07 01:30:24;;;;;;;5.20;3.20;;;1.90;99.90;;;;;;5032333;28;20026;-37
2022/03/07 01:32:52;;;;;;;6.35;3.53;;;1.90;99.90;;;;;;5014886;28;20030;-38
2022/03/07 01:35:18;;;;;;;8.80;3.85;;;1.90;99.90;;;;;;5029580;28;20033;-40
2022/03/07 01:37:44;;;;;;;7.40;4.03;;;2.00;99.90;;;;;;5031237;28;20038;-38
2022/03/07 01:40:10;;;;;;;5.97;3.47;;;2.00;99.90;;;;;;5029750;28;20076;-39
2022/03/07 01:42:36;;;;;;;5.82;3.67;;;2.00;99.90;;;;;;5035917;28;20104;-39
2022/03/07 01:45:13;;;;;;;5.78;3.15;;;2.00;99.90;;;;;;5035888;28;20080;-39
2022/03/07 01:47:39;;;;;;;9.65;3.97;;;2.10;99.90;;;;;;5035249;28;20030;-41
2022/03/07 01:50:07;;;;;;;4.68;3.22;;;2.10;99.90;;;;;;5033007;28;22225;-39
2022/03/07 01:52:36;;;;;;;5.00;3.28;;;2.20;99.90;;;;;;5032799;28;20017;-37
2022/03/07 01:55:03;;;;;;;9.40;3.97;;;2.30;99.90;;;;;;5036137;28;20501;-47
2022/03/07 01:57:30;;;;;;;11.50;4.50;;;2.30;99.90;;;;;;5028303;28;20026;-36
2022/03/07 01:59:56;;;;;;;4.63;3.05;;;2.30;99.90;;;;;;5025432;28;20068;-38
2022/03/07 02:02:24;;;;;;;9.30;3.17;;;2.40;99.90;;;;;;5030045;28;20026;-37
2022/03/07 02:04:51;;;;;;;5.97;3.78;;;2.40;99.90;;;;;;5019602;28;20108;-38
2022/03/07 02:07:16;;;;;;;7.18;3.08;;;2.50;99.90;;;;;;5033726;28;20029;-38
2022/03/07 02:09:43;;;;;;;5.47;3.33;;;2.50;99.90;;;;;;5027478;28;20386;-38
2022/03/07 02:12:09;;;;;;;6.25;3.47;;;2.50;99.90;;;;;;5026016;28;20037;-37
2022/03/07 02:14:35;;;;;;;9.13;3.22;;;2.50;99.90;;;;;;5028442;28;20025;-39
2022/03/07 02:17:01;;;;;;;8.30;3.65;;;2.50;99.90;;;;;;5033606;28;20097;-37
2022/03/07 02:19:26;;;;;;;8.52;3.45;;;2.50;99.90;;;;;;5031153;28;20121;-37
2022/03/07 02:22:00;;;;;;;7.57;3.85;;;2.50;99.90;;;;;;5027052;28;20057;-38
2022/03/07 02:24:26;;;;;;;5.88;3.42;;;2.50;99.90;;;;;;5031642;28;20068;-37
2022/03/07 02:27:12;;;;;;;5.38;3.22;;;2.40;99.90;;;;;;5030358;28;20049;-37
2022/03/07 02:29:38;;;;;;;6.43;3.38;;;2.40;99.90;;;;;;5018915;28;20398;-38
2022/03/07 02:32:05;;;;;;;8.75;3.88;;;2.30;99.90;;;;;;5029061;28;20060;-38
2022/03/07 02:34:32;;;;;;;7.47;3.33;;;2.20;99.90;;;;;;5029369;28;20115;-38
2022/03/07 02:36:57;;;;;;;6.35;3.13;;;2.20;99.90;;;;;;5019088;28;20293;-37
2022/03/07 02:39:23;;;;;;;3.83;3.20;;;2.10;99.90;;;;;;5018657;28;20058;-39
2022/03/07 02:41:49;;;;;;;6.90;3.80;;;2.10;99.90;;;;;;5015785;28;20394;-37
2022/03/07 02:44:15;;;;;;;3.60;3.10;;;2.00;99.90;;;;;;5026512;28;20022;-39
2022/03/07 02:46:41;;;;;;;4.15;3.05;;;1.90;99.90;;;;;;5025341;28;20437;-38
2022/03/07 02:49:07;;;;;;;9.30;3.50;;;1.90;99.90;;;;;;5034303;28;20382;-38
2022/03/07 02:51:33;;;;;;;6.53;3.80;;;1.90;99.90;;;;;;5017939;28;20021;-39
2022/03/07 02:53:59;;;;;;;5.25;3.20;;;1.80;99.90;;;;;;5018823;28;20033;-33
2022/03/07 02:56:25;;;;;;;7.13;3.65;;;1.80;99.90;;;;;;5034489;28;20021;-35
2022/03/07 02:58:51;;;;;;;6.45;4.07;;;1.80;99.90;;;;;;5033330;28;20059;-38
2022/03/07 03:01:16;;;;;;;7.20;4.05;;;1.70;99.90;;;;;;5034219;28;20108;-39
2022/03/07 03:03:42;;;;;;;6.50;3.70;;;1.70;99.90;;;;;;5034392;28;20411;-39
2022/03/07 03:06:07;;;;;;;6.18;3.67;;;1.70;99.90;;;;;;5025645;28;20018;-39
2022/03/07 03:08:33;;;;;;;9.90;4.25;;;1.70;99.90;;;;;;5018574;28;20062;-37
2022/03/07 03:10:59;;;;;;;10.80;3.97;;;1.70;99.90;;;;;;5015311;28;20121;-39
2022/03/07 03:13:25;;;;;;;10.43;4.47;;;1.70;99.90;;;;;;5027615;28;20096;-37
2022/03/07 03:15:52;;;;;;;6.97;3.13;;;1.70;99.90;;;;;;5032510;28;20386;-38
2022/03/07 03:18:19;;;;;;;5.40;3.37;;;1.70;99.90;;;;;;5026513;28;20018;-38
2022/03/07 03:20:46;;;;;;;5.05;3.38;;;1.70;99.90;;;;;;5026082;28;20018;-37
2022/03/07 03:23:12;;;;;;;4.43;3.33;;;1.70;99.90;;;;;;5023665;28;20025;-39
2022/03/07 03:25:38;;;;;;;9.23;3.40;;;1.70;99.90;;;;;;5032875;28;20029;-39
2022/03/07 03:28:04;;;;;;;7.10;3.92;;;1.70;99.90;;;;;;5033863;28;20026;-38
2022/03/07 03:30:30;;;;;;;4.63;3.10;;;1.70;99.90;;;;;;5026837;28;20030;-37
2022/03/07 03:32:56;;;;;;;8.88;3.40;;;1.70;99.90;;;;;;5019783;28;20017;-38
2022/03/07 03:35:22;;;;;;;10.73;3.35;;;1.60;99.90;;;;;;5029718;28;20526;-38
2022/03/07 03:37:47;;;;;;;5.20;3.22;;;1.70;99.90;;;;;;5030161;28;20101;-38
2022/03/07 03:40:13;;;;;;;5.95;3.97;;;1.70;99.90;;;;;;5015647;28;20378;-37
2022/03/07 03:42:40;;;;;;;5.88;3.63;;;1.70;99.90;;;;;;5031640;28;20030;-38
2022/03/07 03:45:08;;;;;;;6.30;3.50;;;1.70;99.90;;;;;;5027486;28;20060;-38
2022/03/07 03:47:37;;;;;;;;;;;1.70;99.90;;;;;;5020006;28;20030;-38
2022/03/07 03:50:04;;;;;;;6.72;3.40;;;1.70;99.90;;;;;;5029473;28;20004;-38
2022/03/07 03:52:30;;;;;;;7.03;3.38;;;1.70;99.90;;;;;;5023528;28;20045;-38
2022/03/07 03:54:56;;;;;;;6.72;3.88;;;1.70;99.90;;;;;;5019870;28;20055;-40
2022/03/07 03:57:22;;;;;;;6.75;3.80;;;1.60;99.90;;;;;;5033399;28;20025;-38
2022/03/07 03:59:48;;;;;;;6.13;3.83;;;1.60;99.90;;;;;;5031710;28;20498;-38
2022/03/07 04:02:14;;;;;;;4.88;3.28;;;1.50;99.90;;;;;;5032111;28;20032;-38
2022/03/07 04:04:40;;;;;;;8.77;4.18;;;1.50;99.90;;;;;;5024193;28;20029;-39
2022/03/07 04:07:06;;;;;;;5.85;3.53;;;1.50;99.90;;;;;;5031975;28;20115;-38
2022/03/07 04:09:32;;;;;;;5.65;3.50;;;1.50;99.90;;;;;;5028623;28;20092;-38
2022/03/07 04:11:58;;;;;;;7.53;3.72;;;1.40;99.90;;;;;;5016116;28;20521;-38
2022/03/07 04:14:23;;;;;;;4.97;3.72;;;1.40;99.90;;;;;;5015030;28;20032;-38
2022/03/07 04:16:49;;;;;;;10.43;4.15;;;1.30;99.90;;;;;;5032947;28;20025;-40
2022/03/07 04:19:15;;;;;;;4.55;3.53;;;1.30;99.90;;;;;;5031560;28;20025;-39
2022/03/07 04:21:41;;;;;;;10.52;3.63;;;1.30;99.90;;;;;;5026045;28;20489;-38
2022/03/07 04:24:08;;;;;;;8.27;4.07;;;1.30;99.90;;;;;;5017332;28;20029;-39
2022/03/07 04:26:34;;;;;;;8.88;3.97;;;1.30;99.90;;;;;;5028315;28;20055;-36
2022/03/07 04:29:07;;;;;;;7.57;3.60;;;1.30;99.90;;;;;;5022447;28;20482;-37
2022/03/07 04:31:38;;;;;;;12.25;4.47;;;1.40;99.90;;;;;;5020726;28;20021;-37
2022/03/07 04:34:04;;;;;;;7.95;4.45;;;1.40;99.90;;;;;;5030221;28;20108;-37
2022/03/07 04:36:30;;;;;;;11.07;3.58;;;1.30;99.90;;;;;;5029357;28;20055;-37
2022/03/07 04:38:56;;;;;;;9.48;4.00;;;1.30;99.90;;;;;;5025713;28;20025;-37
2022/03/07 04:41:22;;;;;;;6.57;3.58;;;1.20;99.90;;;;;;5017086;28;20026;-38
2022/03/07 04:43:47;;;;;;;6.00;4.22;;;1.10;99.90;;;;;;5013360;28;20088;-37
2022/03/07 04:46:13;;;;;;;7.03;3.67;;;1.10;99.90;;;;;;5026480;28;20086;-38
2022/03/07 04:48:39;;;;;;;7.00;3.85;;;1.10;99.90;;;;;;5030694;28;20466;-37
2022/03/07 04:51:04;;;;;;;9.18;4.28;;;1.20;99.90;;;;;;5013333;28;20029;-37
2022/03/07 04:53:30;;;;;;;12.45;4.10;;;1.20;99.90;;;;;;5030489;28;20033;-50
2022/03/07 04:55:56;;;;;;;8.10;4.97;;;1.10;99.90;;;;;;5016821;28;20061;-38
2022/03/07 04:58:21;;;;;;;7.88;3.88;;;1.10;99.90;;;;;;5015286;28;20117;-36
2022/03/07 05:00:47;;;;;;;6.30;3.60;;;1.10;99.90;;;;;;5025957;28;20030;-36
2022/03/07 05:03:13;;;;;;;10.43;4.63;;;1.10;99.90;;;;;;5020612;28;20405;-36
2022/03/07 05:05:38;;;;;;;6.20;3.95;;;1.10;99.90;;;;;;5016815;28;20041;-37
2022/03/07 05:08:04;;;;;;;10.32;4.47;;;1.20;99.90;;;;;;5024291;28;20131;-37
2022/03/07 05:10:30;;;;;;;8.73;3.83;;;1.20;99.90;;;;;;5022549;28;20422;-36
2022/03/07 05:12:56;;;;;;;11.32;4.53;;;1.20;99.90;;;;;;5031948;28;20026;-37
2022/03/07 05:15:22;;;;;;;6.93;4.00;;;1.10;99.90;;;;;;5032410;28;20028;-37
2022/03/07 05:17:51;;;;;;;9.70;4.20;;;1.10;99.90;;;;;;5020181;28;20109;-34
2022/03/07 05:20:17;;;;;;;9.48;4.65;;;1.10;99.90;;;;;;5028422;28;20029;-37
2022/03/07 05:22:44;;;;;;;12.82;5.07;;;1.00;99.90;;;;;;5022352;28;20065;-38
2022/03/07 05:25:11;;;;;;;8.00;4.82;;;1.00;99.90;;;;;;5032406;28;20029;-38
2022/03/07 05:27:37;;;;;;;8.45;4.78;;;1.00;99.90;;;;;;5025312;28;20040;-37
2022/03/07 05:30:03;;;;;;;11.30;4.57;;;0.90;99.90;;;;;;5036241;28;20497;-39
2022/03/07 05:32:29;;;;;;;9.80;4.43;;;0.80;99.90;;;;;;5031367;28;20029;-37
2022/03/07 05:34:55;;;;;;;10.68;5.10;;;0.80;99.90;;;;;;5020778;28;20026;-37
2022/03/07 05:37:20;;;;;;;7.22;4.65;;;0.80;99.90;;;;;;5027456;28;20454;-39
2022/03/07 05:39:46;;;;;;;12.30;5.13;;;0.80;99.90;;;;;;5035769;28;20034;-49
2022/03/07 05:42:11;;;;;;;9.68;5.07;;;0.80;99.90;;;;;;5035849;28;20021;-37
2022/03/07 05:44:37;;;;;;;9.25;4.22;;;0.90;99.90;;;;;;5036134;28;20462;-38
2022/03/07 05:47:03;;;;;;;12.32;4.80;;;0.90;99.90;;;;;;5033736;28;20058;-37
2022/03/07 05:49:29;;;;;;;10.32;4.63;;;0.90;99.90;;;;;;5033109;28;20037;-37
2022/03/07 05:51:55;;;;;;;5.88;4.15;;;0.90;99.90;;;;;;5018008;28;20033;-38
2022/03/07 05:54:21;;;;;;;9.20;5.07;;;0.90;99.90;;;;;;5020291;28;20018;-38
2022/03/07 05:56:46;;;;;;;11.82;5.78;;;0.80;99.90;;;;;;5027474;28;20029;-37
2022/03/07 05:59:12;;;;;;;13.10;5.22;;;0.80;99.90;;;;;;5026704;28;20398;-38
2022/03/07 06:01:38;;;;;;;10.73;5.40;;;0.90;99.90;;;;;;5034946;28;20033;-38
2022/03/07 06:04:03;;;;;;;11.48;4.88;;;1.00;99.90;;;;;;5024318;28;20374;-37
2022/03/07 06:06:29;;;;;;;12.20;4.72;;;1.00;99.90;;;;;;5032636;28;20030;-37
2022/03/07 06:08:55;;;;;;;10.55;4.95;;;0.90;99.90;;;;;;5030848;28;20057;-37
2022/03/07 06:11:21;;;;;;;9.70;4.82;;;0.80;99.90;;;;;;5028274;28;20037;-37
2022/03/07 06:13:46;;;;;;;7.78;4.28;;;0.70;99.90;;;;;;5016145;28;20108;-37
2022/03/07 06:16:12;;;;;;;14.68;5.63;;;0.60;99.90;;;;;;5016426;28;20022;-42
2022/03/07 06:18:38;;;;;;;9.48;4.35;;;0.60;99.90;;;;;;5019825;28;20068;-36
2022/03/07 06:21:05;;;;;;;9.35;4.97;;;0.60;99.90;;;;;;5031798;28;20056;-38
2022/03/07 06:23:31;;;;;;;9.23;4.45;;;0.70;99.90;;;;;;5016663;28;20026;-48
2022/03/07 06:25:56;;;;;;;10.45;4.25;;;0.70;99.90;;;;;;5019761;28;20057;-38
2022/03/07 06:28:22;;;;;;;11.40;6.45;;;0.60;99.90;;;;;;5034831;28;20072;-38
2022/03/07 06:30:48;;;;;;;15.73;3.97;;;0.60;99.90;;;;;;5024473;28;20523;-37
2022/03/07 06:33:15;;;;;;;9.38;4.88;;;0.60;99.90;;;;;;5030444;28;20022;-37
2022/03/07 06:35:41;;;;;;;8.75;4.88;;;0.60;99.90;;;;;;5021897;28;20034;-38
2022/03/07 06:38:07;;;;;;;11.18;5.47;;;0.70;99.90;;;;;;5027082;28;20072;-37
2022/03/07 06:40:32;;;;;;;11.40;5.40;;;0.70;99.90;;;;;;5033796;28;20481;-37
2022/03/07 06:43:00;;;;;;;11.32;4.72;;;0.80;99.90;;;;;;5021837;28;20040;-37
2022/03/07 06:45:26;;;;;;;8.10;4.88;;;0.90;99.90;;;;;;5021235;28;20463;-37
2022/03/07 06:47:52;;;;;;;10.13;5.22;;;1.00;99.90;;;;;;5027539;28;20050;-38
2022/03/07 06:50:18;;;;;;;10.77;5.40;;;1.10;99.90;;;;;;5028798;28;20021;-38
2022/03/07 06:52:43;;;;;;;13.32;4.90;;;1.10;99.90;;;;;;5021476;28;20060;-37
2022/03/07 06:55:10;;;;;;;10.23;5.20;;;1.10;99.90;;;;;;5024214;28;20092;-38
2022/03/07 06:57:35;;;;;;;8.45;4.60;;;1.00;99.90;;;;;;5033013;28;20108;-36
2022/03/07 07:00:08;;;;;;;9.15;5.20;;;1.10;99.90;;;;;;5034730;28;20093;-38
2022/03/07 07:02:34;;;;;;;11.15;6.00;;;1.10;99.90;;;;;;5027212;28;20044;-37
2022/03/07 07:05:02;;;;;;;12.57;5.13;;;1.10;99.90;;;;;;5029119;28;20070;-38
2022/03/07 07:07:28;;;;;;;6.65;4.63;;;1.20;99.90;;;;;;5017700;28;20029;-38
2022/03/07 07:09:54;;;;;;;10.43;5.57;;;1.30;99.90;;;;;;5029680;28;20041;-39
2022/03/07 07:12:20;;;;;;;9.20;4.95;;;1.30;99.90;;;;;;5014850;28;20018;-38
2022/03/07 07:14:45;;;;;;;12.27;5.22;;;1.40;99.90;;;;;;5041290;28;20037;-38
2022/03/07 07:17:11;;;;;;;17.83;5.50;;;1.60;99.90;;;;;;5031886;28;20498;-37
2022/03/07 07:19:36;;;;;;;11.65;5.93;;;1.60;99.90;;;;;;5020060;28;20034;-37
2022/03/07 07:22:02;;;;;;;8.55;5.85;;;1.70;99.90;;;;;;5028597;28;20037;-41
2022/03/07 07:24:28;;;;;;;8.88;5.03;;;1.80;99.90;;;;;;5028091;28;20072;-39
2022/03/07 07:26:54;;;;;;;8.75;5.35;;;1.80;99.90;;;;;;5020980;28;20599;-39
2022/03/07 07:29:20;;;;;;;7.70;4.90;;;1.80;99.90;;;;;;5029397;28;20559;-39
2022/03/07 07:31:47;;;;;;;8.82;4.70;;;1.80;99.90;;;;;;5024112;28;20017;-39
2022/03/07 07:34:13;;;;;;;9.10;4.90;;;1.90;99.90;;;;;;5024561;28;20022;-38
2022/03/07 07:36:38;;;;;;;11.98;5.32;;;2.00;99.90;;;;;;5020430;28;20024;-37
2022/03/07 07:39:04;;;;;;;9.52;4.65;;;2.10;99.90;;;;;;5018874;28;20021;-38
2022/03/07 07:41:29;;;;;;;10.98;5.38;;;2.10;99.90;;;;;;5023110;28;20033;-44
2022/03/07 07:43:55;;;;;;;16.30;6.32;;;2.10;99.90;;;;;;5022803;28;20046;-37
2022/03/07 07:46:21;;;;;;;12.32;5.15;;;2.20;99.90;;;;;;5023013;28;20026;-38
2022/03/07 07:48:46;;;;;;;10.93;5.45;;;2.30;99.90;;;;;;5016462;28;20478;-37
2022/03/07 07:51:12;;;;;;;8.20;5.18;;;2.30;99.90;;;;;;5024552;28;20014;-39
2022/03/07 07:53:38;;;;;;;16.67;5.43;;;2.40;99.90;;;;;;5033105;28;20032;-37
2022/03/07 07:56:04;;;;;;;8.90;5.18;;;2.50;99.90;;;;;;5021971;28;20018;-39
2022/03/07 07:58:30;;;;;;;13.45;5.47;;;2.50;99.90;;;;;;5013797;28;20084;-37
2022/03/07 08:00:55;;;;;;;11.50;5.40;;;2.70;99.90;;;;;;5013722;28;20049;-38
2022/03/07 08:03:21;;;;;;;14.63;6.30;;;2.80;99.90;;;;;;5020771;28;20029;-37
2022/03/07 08:05:48;;;;;;;13.20;6.32;;;3.00;99.90;;;;;;5031549;28;20029;-38
2022/03/07 08:08:15;;;;;;;10.80;5.50;;;3.00;99.90;;;;;;5025522;28;20048;-38
2022/03/07 08:10:41;;;;;;;10.77;5.43;;;3.20;99.90;;;;;;5025464;28;20033;-40
2022/03/07 08:13:06;;;;;;;8.07;4.57;;;3.30;99.90;;;;;;5033258;28;20022;-37
2022/03/07 08:15:32;;;;;;;8.70;5.15;;;3.40;99.90;;;;;;5021677;28;20029;-37
2022/03/07 08:17:58;;;;;;;11.38;4.80;;;3.60;99.90;;;;;;5027923;28;20470;-38
2022/03/07 08:20:23;;;;;;;8.23;4.97;;;3.70;99.90;;;;;;5021832;28;20108;-38
2022/03/07 08:22:50;;;;;;;13.95;5.40;;;3.80;99.90;;;;;;5030454;28;20025;-37
2022/03/07 08:25:16;;;;;;;9.52;5.38;;;3.90;99.90;;;;;;5018114;28;20067;-38
2022/03/07 08:27:42;;;;;;;8.77;4.38;;;3.90;99.90;;;;;;5031001;28;20025;-36
2022/03/07 08:30:11;;;;;;;11.43;4.72;;;4.10;99.90;;;;;;5013119;28;20022;-37
2022/03/07 08:32:37;;;;;;;6.10;4.30;;;4.20;99.90;;;;;;5017436;28;20022;-37
2022/03/07 08:35:05;;;;;;;8.50;4.00;;;4.30;99.90;;;;;;5026238;28;20520;-38
2022/03/07 08:37:31;;;;;;;10.02;4.57;;;4.40;99.90;;;;;;5024938;28;20112;-38
2022/03/07 08:39:57;;;;;;;6.25;4.13;;;4.50;99.90;;;;;;5024107;28;20535;-39
2022/03/07 08:42:22;;;;;;;13.73;4.60;;;4.60;99.90;;;;;;5032882;28;20037;-38
2022/03/07 08:44:50;;;;;;;5.72;4.22;;;4.70;99.90;;;;;;5023180;28;20099;-37
2022/03/07 08:47:15;;;;;;;5.83;3.67;;;4.70;99.90;;;;;;5031364;28;20071;-38
2022/03/07 08:49:41;;;;;;;5.97;4.40;;;4.70;99.90;;;;;;5031168;28;20386;-39
2022/03/07 08:52:07;;;;;;;11.38;4.63;;;4.80;99.90;;;;;;5031005;28;20017;-38
2022/03/07 08:54:33;;;;;;;10.32;4.53;;;4.90;99.90;;;;;;5027425;28;20037;-37
2022/03/07 08:56:58;;;;;;;7.95;4.15;;;5.00;99.90;;;;;;5021868;28;20018;-39
2022/03/07 08:59:27;;;;;;;14.05;4.40;;;5.10;99.90;;;;;;5013230;28;20030;-37
2022/03/07 09:01:53;;;;;;;8.25;3.95;;;5.10;99.90;;;;;;5012927;28;20528;-39
2022/03/07 09:04:20;;;;;;;7.07;4.45;;;5.30;99.90;;;;;;5025838;28;20064;-38
2022/03/07 09:06:46;;;;;;;8.43;5.03;;;5.30;99.90;;;;;;5031571;28;20027;-38
2022/03/07 09:09:12;;;;;;;5.10;3.53;;;5.40;99.90;;;;;;5032314;28;20017;-38
2022/03/07 09:11:38;;;;;;;6.68;4.35;;;5.50;99.90;;;;;;5025108;28;20514;-38
2022/03/07 09:14:04;;;;;;;6.88;4.20;;;5.60;99.90;;;;;;5015113;28;20022;-38
2022/03/07 09:16:30;;;;;;;8.32;4.47;;;5.70;99.90;;;;;;5014201;28;20037;-37
2022/03/07 09:18:55;;;;;;;5.18;3.95;;;5.90;99.90;;;;;;5014147;28;20030;-39
2022/03/07 09:21:21;;;;;;;7.68;3.90;;;5.90;99.90;;;;;;5014162;28;20076;-37
2022/03/07 09:23:46;;;;;;;6.70;4.45;;;5.90;99.90;;;;;;5012749;28;20029;-39
2022/03/07 09:26:13;;;;;;;7.63;4.57;;;5.90;99.90;;;;;;5014528;28;20147;-55
2022/03/07 09:28:39;;;;;;;6.30;4.05;;;5.90;99.90;;;;;;5013305;28;20069;-39
2022/03/07 09:31:06;;;;;;;7.95;4.00;;;5.80;99.90;;;;;;5030300;28;20053;-38
2022/03/07 09:33:32;;;;;;;7.70;3.95;;;5.90;99.90;;;;;;5019323;28;20581;-39
2022/03/07 09:35:59;;;;;;;8.38;3.65;;;5.90;99.90;;;;;;5020247;28;20033;-37
2022/03/07 09:38:26;;;;;;;6.13;3.65;;;6.00;99.90;;;;;;5032541;28;20044;-37
2022/03/07 09:40:52;;;;;;;5.80;4.35;;;6.10;99.90;;;;;;5032250;28;20136;-38
2022/03/07 09:43:18;;;;;;;7.57;4.50;;;6.20;99.90;;;;;;5029519;28;20029;-39
2022/03/07 09:45:44;;;;;;;5.00;3.75;;;6.30;99.90;;;;;;5016682;28;20025;-39
2022/03/07 09:48:12;;;;;;;4.80;3.58;;;6.30;99.90;;;;;;5030189;28;20025;-37
2022/03/07 09:50:39;;;;;;;4.25;3.30;;;6.30;99.90;;;;;;5030866;28;20393;-38
2022/03/07 09:53:05;;;;;;;6.32;3.10;;;6.40;99.90;;;;;;5032522;28;20536;-38
2022/03/07 09:55:31;;;;;;;8.30;4.07;;;6.40;99.90;;;;;;5020680;28;20478;-37
2022/03/07 09:57:58;;;;;;;7.65;3.55;;;6.50;99.90;;;;;;5012529;28;20102;-38
2022/03/07 10:00:24;;;;;;;5.32;3.53;;;6.40;99.90;;;;;;5026642;28;20029;-37
2022/03/07 10:02:59;;;;;;;4.13;3.45;;;6.40;99.90;;;;;;5019153;28;20030;-39
2022/03/07 10:05:32;;;;;;;5.15;3.47;;;6.50;99.90;;;;;;5033339;28;20556;-38
2022/03/07 10:07:57;;;;;;;10.10;4.60;;;6.60;99.90;;;;;;5021614;28;20105;-38
2022/03/07 10:10:31;;;;;;;5.80;3.35;;;6.80;99.90;;;;;;5028361;28;20123;-38
2022/03/07 10:13:01;;;;;;;5.72;3.80;;;6.90;99.90;;;;;;5029199;28;20072;-39
2022/03/07 10:15:26;;;;;;;6.05;3.30;;;7.00;99.80;;;;;;5015714;28;20084;-38
2022/03/07 10:17:54;;;;;;;8.05;4.20;;;7.00;99.90;;;;;;5015604;28;20034;-39
2022/03/07 10:20:22;;;;;;;7.20;3.47;;;7.10;99.30;;;;;;5015987;28;20501;-40
2022/03/07 10:22:53;;;;;;;6.22;3.80;;;7.10;99.20;;;;;;5015793;28;20477;-38
2022/03/07 10:25:25;;;;;;;4.38;3.63;;;7.10;99.30;;;;;;5014374;28;20026;-39
2022/03/07 10:27:52;;;;;;;5.65;3.42;;;7.10;99.50;;;;;;5015628;28;20025;-38
2022/03/07 10:30:21;;;;;;;8.75;3.60;;;7.20;99.40;;;;;;5015390;28;20041;-39
2022/03/07 10:33:00;;;;;;;4.63;3.40;;;7.30;99.80;;;;;;5015839;28;20097;-36
2022/03/07 10:35:42;;;;;;;6.28;4.20;;;7.40;99.00;;;;;;5028636;28;20036;-38
2022/03/07 10:38:16;;;;;;;5.15;3.42;;;7.40;98.80;;;;;;5035192;28;20104;-37
2022/03/07 10:40:51;;;;;;;6.20;3.38;;;7.30;98.60;;;;;;5034927;28;20029;-38
2022/03/07 10:43:17;;;;;;;5.75;3.60;;;7.30;98.80;;;;;;5035312;28;20052;-39
2022/03/07 10:45:47;;;;;;;15.50;4.22;;;7.30;98.80;;;;;;5035130;28;20087;-38
2022/03/07 10:48:14;;;;;;;5.57;3.83;;;7.30;98.90;;;;;;5035094;28;20041;-38
2022/03/07 10:50:42;;;;;;;7.18;3.47;;;7.30;98.80;;;;;;5035246;28;20036;-36
2022/03/07 10:53:08;;;;;;;;;;;7.40;98.90;;;;;;5034295;28;20021;-39
2022/03/07 10:55:34;;;;;;;7.78;3.50;;;7.40;98.80;;;;;;5034678;28;19916;-38
2022/03/07 10:58:12;;;;;;;11.23;4.07;;;7.40;99.00;;;;;;5034803;28;20104;-39
2022/03/07 11:00:47;;;;;;;7.63;4.00;;;7.50;99.30;;;;;;5034736;28;20083;-39
2022/03/07 11:03:30;;;;;;;5.88;3.53;;;7.60;98.90;;;;;;5034428;28;20541;-37
2022/03/07 11:05:57;;;;;;;6.75;4.18;;;7.60;98.50;;;;;;5034764;28;20034;-38
2022/03/07 11:08:23;;;;;;;9.77;3.80;;;7.50;98.60;;;;;;5034465;28;20112;-38
2022/03/07 11:10:52;;;;;;;8.50;4.22;;;7.70;98.60;;;;;;5032900;28;20029;-37
2022/03/07 11:13:25;;;;;;;8.55;4.50;;;7.80;99.00;;;;;;5034457;28;20033;-38
2022/03/07 11:15:50;;;;;;;6.85;4.07;;;8.00;98.60;;;;;;5034429;28;20056;-38
2022/03/07 11:18:19;;;;;;;8.68;4.03;;;8.10;98.40;;;;;;5034384;28;20436;-37
2022/03/07 11:20:45;;;;;;;8.93;4.68;;;8.00;99.10;;;;;;5034339;28;20112;-38
2022/03/07 11:23:11;;;;;;;8.30;4.75;;;8.10;98.20;;;;;;5034388;28;20083;-38
2022/03/07 11:25:41;;;;;;;7.13;3.90;;;8.00;97.70;;;;;;5034166;28;20039;-38
2022/03/07 11:28:07;;;;;;;5.38;3.45;;;8.10;98.00;;;;;;5034068;28;20493;-43
2022/03/07 11:30:35;;;;;;;6.20;3.47;;;8.10;97.80;;;;;;5034395;28;20083;-39
2022/03/07 11:33:10;;;;;;;9.27;5.05;;;8.10;97.80;;;;;;5034099;28;20025;-39
2022/03/07 11:35:36;;;;;;;4.78;3.65;;;8.20;97.50;;;;;;5034264;28;20029;-37
2022/03/07 11:38:14;;;;;;;4.50;3.30;;;8.20;97.90;;;;;;5033985;28;20037;-38
2022/03/07 11:40:56;;;;;;;6.22;3.58;;;8.40;97.10;;;;;;5033925;28;20107;-37
2022/03/07 11:43:24;;;;;;;10.65;3.78;;;8.50;97.50;;;;;;5033892;28;20033;-37
2022/03/07 11:45:51;;;;;;;5.40;3.47;;;8.50;96.80;;;;;;5032595;28;20022;-38
2022/03/07 11:48:16;;;;;;;8.00;4.18;;;8.60;97.40;;;;;;5033830;28;20112;-38
2022/03/07 11:50:42;;;;;;;7.05;4.25;;;8.70;97.10;;;;;;5033762;28;20052;-38
2022/03/07 11:53:08;;;;;;;5.30;3.83;;;8.80;97.20;;;;;;5033706;28;20482;-39
2022/03/07 11:55:43;;;;;;;5.18;4.47;;;8.90;97.30;;;;;;5032002;28;20124;-47
2022/03/07 11:58:08;;;;;;;7.28;4.15;;;8.90;96.80;;;;;;5033900;28;20036;-48
2022/03/07 12:00:35;;;;;;;11.07;5.35;;;8.80;97.10;;;;;;5033565;28;20417;-38
2022/03/07 12:03:15;;;;;;;7.17;2.87;;;8.80;97.10;;;;;;5033571;28;20058;-38
2022/03/07 12:05:43;;;;;;;6.28;3.92;;;8.90;97.00;;;;;;5013805;28;20037;-39
2022/03/07 12:08:14;;;;;;;5.13;3.80;;;8.90;97.30;;;;;;5013668;28;20116;-37
2022/03/07 12:10:59;;;;;;;7.53;4.45;;;9.10;97.00;;;;;;5013609;28;20096;-37
2022/03/07 12:13:27;;;;;;;5.53;3.60;;;9.20;96.30;;;;;;5013966;28;20022;-37
2022/03/07 12:15:55;;;;;;;5.70;3.22;;;9.10;96.90;;;;;;5013540;28;20460;-37
2022/03/07 12:18:21;;;;;;;7.40;3.75;;;9.20;96.40;;;;;;5013540;28;20030;-39
2022/03/07 12:20:56;;;;;;;7.07;3.30;;;9.20;96.20;;;;;;5013487;28;20030;-38
2022/03/07 12:23:24;;;;;;;4.55;3.13;;;9.30;96.00;;;;;;5013567;28;20034;-38
2022/03/07 12:26:05;;;;;;;5.70;3.40;;;9.40;95.90;;;;;;5013170;28;20022;-38
2022/03/07 12:28:37;;;;;;;5.43;3.30;;;9.50;96.10;;;;;;5013644;28;20030;-39
2022/03/07 12:31:04;;;;;;;4.82;3.33;;;9.50;95.80;;;;;;5013539;28;20026;-37
2022/03/07 12:33:30;;;;;;;3.88;3.25;;;9.60;95.80;;;;;;5013339;28;20057;-40
2022/03/07 12:36:09;;;;;;;5.68;3.13;;;9.50;95.30;;;;;;5030695;28;20484;-39
2022/03/07 12:38:50;;;;;;;6.32;3.53;;;9.30;96.00;;;;;;5033359;28;20033;-38
2022/03/07 12:41:19;;;;;;;4.63;2.80;;;9.30;95.70;;;;;;5032982;28;20458;-38
2022/03/07 12:43:50;;;;;;;3.47;3.15;;;9.40;96.20;;;;;;5032978;28;20025;-39
2022/03/07 12:46:16;;;;;;;2.88;2.63;;;9.60;95.80;;;;;;5033283;28;20105;-39
2022/03/07 12:48:43;;;;;;;4.07;3.20;;;9.70;96.00;;;;;;5033138;28;20132;-37
2022/03/07 12:51:18;;;;;;;8.30;3.00;;;9.70;95.60;;;;;;5033027;28;20116;-39
2022/03/07 12:53:49;;;;;;;4.05;2.90;;;9.80;95.50;;;;;;5032637;28;20033;-38